Wallace, Idaho
Current Conditions -  °F | °C
As of 4:53 PM on Saturday 20 Dec 2014 (Local Time) from KMLP Reporting Station
Light Snow Light Snow  
Wind Chill: 24°   Ceiling: 300
Heat Index: 30°   Visibility: 0.5mi
Dew Point: 27°   Wind: 6mph
Humidity: 88%   Direction: NA
Pressure: 29.65"   Gusts: 17mph
Location:  47.47°N, 115.93°W
Report Text: KMLP 210053Z AUTO VRB05G15KT 1/2SM -SN FZFG VV003 M01/M03 A2965 RMK AO2 SLP066 P0001 T10111028
Loading
Personal Weather Stations






























Interactive Weather Map New forecast layout! Learn more

10-Day Weather Forecast

Advertisements
Track Severe Weather on mobile